createdAt,value
2018-08-30T00:02:27.056Z,90.90
2018-08-30T00:04:55.295Z,91.60
2018-08-30T00:07:23.519Z,92.00
2018-08-30T00:09:51.795Z,92.30
2018-08-30T00:12:19.998Z,93.10
2018-08-30T00:14:48.235Z,93.90
2018-08-30T00:17:16.441Z,93.80
2018-08-30T00:19:44.695Z,94.00
2018-08-30T00:22:12.933Z,94.20
2018-08-30T00:24:41.168Z,94.60
2018-08-30T00:27:09.371Z,94.50
2018-08-30T00:29:37.616Z,95.40
2018-08-30T00:32:05.886Z,94.00
2018-08-30T00:34:34.095Z,93.60
2018-08-30T00:37:02.329Z,93.40
2018-08-30T00:39:30.533Z,93.00
2018-08-30T00:41:58.814Z,93.70
2018-08-30T00:44:27.103Z,93.80
2018-08-30T00:46:55.343Z,94.10
2018-08-30T00:49:23.562Z,94.20
2018-08-30T00:51:51.791Z,94.50
2018-08-30T00:54:20.045Z,95.20
2018-08-30T00:56:48.272Z,95.30
2018-08-30T00:59:16.483Z,95.60
2018-08-30T01:01:44.717Z,95.60
2018-08-30T01:04:12.927Z,95.50
2018-08-30T01:06:41.154Z,96.20
2018-08-30T01:09:09.388Z,95.40
2018-08-30T01:11:37.622Z,95.20
2018-08-30T01:14:05.845Z,96.00
2018-08-30T01:16:34.516Z,96.20
2018-08-30T01:19:02.893Z,96.00
2018-08-30T01:21:31.115Z,96.40
2018-08-30T01:23:59.330Z,96.40
2018-08-30T01:26:27.570Z,96.50
2018-08-30T01:28:56.622Z,96.20
2018-08-30T01:31:24.889Z,95.80
2018-08-30T01:33:53.148Z,95.80
2018-08-30T01:36:21.376Z,95.20
2018-08-30T01:38:49.587Z,95.70
2018-08-30T01:41:17.861Z,96.20
2018-08-30T01:43:46.084Z,95.60
2018-08-30T01:46:14.751Z,95.70
2018-08-30T01:48:42.974Z,96.20
2018-08-30T01:51:11.226Z,96.20
2018-08-30T01:53:39.455Z,96.10
2018-08-30T01:56:07.687Z,96.50
2018-08-30T01:58:35.972Z,96.70
2018-08-30T02:01:04.230Z,97.50
2018-08-30T02:03:32.453Z,97.00
2018-08-30T02:06:00.696Z,97.50
2018-08-30T02:08:28.993Z,97.60
2018-08-30T02:10:57.239Z,97.80
2018-08-30T02:13:25.463Z,98.00
2018-08-30T02:15:53.707Z,99.20
2018-08-30T02:18:21.944Z,98.60
2018-08-30T02:20:50.431Z,98.50
2018-08-30T02:23:18.664Z,98.30
2018-08-30T02:25:47.543Z,98.30
2018-08-30T02:28:15.783Z,98.50
2018-08-30T02:30:43.986Z,97.90
2018-08-30T02:33:12.269Z,98.90
2018-08-30T02:35:40.530Z,98.30
2018-08-30T02:38:08.767Z,98.30
2018-08-30T02:40:36.982Z,98.20
2018-08-30T02:43:05.999Z,98.50
2018-08-30T02:45:34.571Z,99.10
2018-08-30T02:48:02.812Z,99.40
2018-08-30T02:50:31.142Z,99.60
2018-08-30T02:52:59.752Z,99.90
2018-08-30T02:55:27.994Z,99.90
2018-08-30T02:57:56.238Z,99.90
2018-08-30T03:00:24.491Z,99.90
2018-08-30T03:02:52.778Z,99.90
2018-08-30T03:05:21.003Z,99.90
2018-08-30T03:07:49.264Z,99.90
2018-08-30T03:10:17.495Z,99.90
2018-08-30T03:12:45.739Z,99.90
2018-08-30T03:15:14.931Z,99.90
2018-08-30T03:17:43.947Z,99.90
2018-08-30T03:20:13.445Z,99.90
2018-08-30T03:22:42.280Z,99.90
2018-08-30T03:25:10.547Z,99.90
2018-08-30T03:27:39.759Z,99.90
2018-08-30T03:30:08.467Z,99.90
2018-08-30T03:32:36.765Z,99.90
2018-08-30T03:35:05.067Z,99.90
2018-08-30T03:37:33.303Z,99.90
2018-08-30T03:40:01.750Z,99.90
2018-08-30T03:42:29.983Z,99.90
2018-08-30T03:44:58.217Z,99.90
2018-08-30T03:47:26.453Z,99.90
2018-08-30T03:49:54.696Z,99.90
2018-08-30T03:52:22.939Z,99.90
2018-08-30T03:54:51.189Z,99.90
2018-08-30T03:57:19.415Z,99.90
2018-08-30T03:59:47.746Z,99.90
2018-08-30T04:02:16.028Z,99.90
2018-08-30T04:04:44.244Z,99.90
2018-08-30T04:07:12.518Z,99.90
2018-08-30T04:09:40.795Z,99.90
2018-08-30T04:12:09.105Z,99.90
2018-08-30T04:14:37.319Z,99.90
2018-08-30T04:17:05.571Z,99.90
2018-08-30T04:19:33.834Z,99.90
2018-08-30T04:22:02.115Z,99.90
2018-08-30T04:24:30.763Z,99.90
2018-08-30T04:26:59.081Z,99.90
2018-08-30T04:29:27.297Z,99.90
2018-08-30T04:31:55.532Z,99.90
2018-08-30T04:34:23.756Z,99.70
2018-08-30T04:36:52.047Z,99.60
2018-08-30T04:39:20.277Z,99.90
2018-08-30T04:41:48.507Z,99.90
2018-08-30T04:44:16.751Z,99.60
2018-08-30T04:46:45.021Z,99.00
2018-08-30T04:49:13.309Z,99.90
2018-08-30T04:51:41.550Z,99.90
2018-08-30T04:54:10.465Z,99.20
2018-08-30T04:56:38.713Z,99.00
2018-08-30T04:59:06.975Z,99.10
2018-08-30T05:01:35.259Z,98.30
2018-08-30T05:04:03.539Z,98.50
2018-08-30T05:06:31.780Z,98.40
2018-08-30T05:09:00.067Z,98.50
2018-08-30T05:11:28.302Z,99.70
2018-08-30T05:13:56.630Z,99.90
2018-08-30T05:16:24.951Z,99.70
2018-08-30T05:18:53.243Z,99.20
2018-08-30T05:21:21.454Z,99.90
2018-08-30T05:23:49.686Z,99.90
2018-08-30T05:26:17.991Z,99.90
2018-08-30T05:28:46.213Z,99.20
2018-08-30T05:31:14.440Z,99.40
2018-08-30T05:33:42.722Z,99.40
2018-08-30T05:36:10.978Z,99.60
2018-08-30T05:38:39.233Z,99.70
2018-08-30T05:41:07.509Z,99.40
2018-08-30T05:43:35.932Z,98.60
2018-08-30T05:46:04.156Z,98.90
2018-08-30T05:48:32.421Z,98.60
2018-08-30T05:51:00.636Z,97.80
2018-08-30T05:53:28.875Z,97.10
2018-08-30T05:55:57.088Z,96.30
2018-08-30T05:58:25.329Z,95.80
2018-08-30T06:00:53.558Z,95.30
2018-08-30T06:03:21.787Z,95.10
2018-08-30T06:05:50.108Z,95.10
2018-08-30T06:08:18.472Z,95.20
2018-08-30T06:10:46.685Z,95.20
2018-08-30T06:13:14.908Z,94.80
2018-08-30T06:15:43.145Z,94.50
2018-08-30T06:18:11.820Z,94.10
2018-08-30T06:20:40.064Z,94.50
2018-08-30T06:23:08.302Z,94.10
2018-08-30T06:25:36.519Z,94.30
2018-08-30T06:28:04.804Z,93.60
2018-08-30T06:30:33.051Z,93.60
2018-08-30T06:33:01.263Z,93.40
2018-08-30T06:35:29.504Z,93.40
2018-08-30T06:37:57.760Z,93.50
2018-08-30T06:40:26.001Z,93.70
2018-08-30T06:42:54.208Z,93.70
2018-08-30T06:45:22.522Z,94.10
2018-08-30T06:47:50.737Z,94.50
2018-08-30T06:50:18.983Z,94.70
2018-08-30T06:52:47.199Z,95.20
2018-08-30T06:55:15.460Z,95.60
2018-08-30T06:57:43.690Z,95.70
2018-08-30T07:00:11.899Z,95.70
2018-08-30T07:02:40.118Z,95.10
2018-08-30T07:05:08.355Z,94.90
2018-08-30T07:07:36.578Z,94.70
2018-08-30T07:10:05.338Z,94.70
2018-08-30T07:12:33.592Z,94.10
2018-08-30T07:15:02.128Z,94.10
2018-08-30T07:17:30.416Z,94.40
2018-08-30T07:19:58.706Z,94.20
2018-08-30T07:22:26.898Z,93.90
2018-08-30T07:24:57.756Z,94.20
2018-08-30T07:27:26.236Z,94.20
2018-08-30T07:29:54.482Z,94.20
2018-08-30T07:32:22.752Z,94.20
2018-08-30T07:34:51.076Z,95.00
2018-08-30T07:37:19.240Z,95.20
2018-08-30T07:39:47.474Z,95.70
2018-08-30T07:42:15.720Z,96.20
2018-08-30T07:44:43.939Z,96.70
2018-08-30T07:47:12.180Z,97.00
2018-08-30T07:49:40.384Z,98.30
2018-08-30T07:52:08.612Z,99.30
2018-08-30T07:54:37.121Z,99.90
2018-08-30T07:57:05.556Z,99.90
2018-08-30T07:59:33.820Z,99.90
2018-08-30T08:02:02.151Z,99.90
2018-08-30T08:04:30.413Z,99.90
2018-08-30T08:06:58.723Z,99.90
2018-08-30T08:09:26.955Z,99.90
2018-08-30T08:11:55.312Z,99.90
2018-08-30T08:14:23.539Z,99.90
2018-08-30T08:16:52.153Z,99.90
2018-08-30T08:19:20.516Z,99.90
2018-08-30T08:21:48.827Z,99.90
2018-08-30T08:24:17.249Z,99.90
2018-08-30T08:26:45.527Z,99.90
2018-08-30T08:29:13.796Z,99.90
2018-08-30T08:31:42.049Z,99.90
2018-08-30T08:34:10.318Z,99.90
2018-08-30T08:36:38.740Z,99.90
2018-08-30T08:39:06.983Z,99.90
2018-08-30T08:41:35.340Z,99.90
2018-08-30T08:44:04.266Z,99.90
2018-08-30T08:46:33.133Z,99.90
2018-08-30T08:49:01.375Z,99.90
2018-08-30T08:51:29.624Z,99.90
2018-08-30T08:53:57.841Z,99.90
2018-08-30T08:56:26.092Z,99.90
2018-08-30T08:58:54.453Z,99.90
2018-08-30T09:01:22.715Z,99.90
2018-08-30T09:03:50.951Z,99.90
2018-08-30T09:06:19.183Z,99.90
2018-08-30T09:08:47.403Z,99.90
2018-08-30T09:11:15.708Z,99.90
2018-08-30T09:13:43.938Z,99.90
2018-08-30T09:16:12.176Z,99.90
2018-08-30T09:18:40.472Z,99.90
2018-08-30T09:21:08.712Z,99.90
2018-08-30T09:23:36.952Z,99.90
2018-08-30T09:26:05.413Z,99.90
2018-08-30T09:28:33.706Z,99.90
2018-08-30T09:31:01.997Z,99.90
2018-08-30T09:33:30.203Z,99.90
2018-08-30T09:35:58.418Z,99.90
2018-08-30T09:38:26.631Z,99.90
2018-08-30T09:40:54.931Z,99.90
2018-08-30T09:43:23.176Z,99.90
2018-08-30T09:45:51.458Z,99.90
2018-08-30T09:48:19.672Z,99.90
2018-08-30T09:50:48.050Z,99.90
2018-08-30T09:53:16.299Z,99.90
2018-08-30T09:55:44.655Z,99.90
2018-08-30T09:58:12.883Z,99.90
2018-08-30T10:00:46.478Z,99.90
2018-08-30T10:03:14.746Z,99.90
2018-08-30T10:05:43.001Z,99.90
2018-08-30T10:08:11.272Z,99.90
2018-08-30T10:10:39.475Z,99.90
2018-08-30T10:13:07.724Z,99.90
2018-08-30T10:15:36.117Z,99.90
2018-08-30T10:18:04.425Z,99.90
2018-08-30T10:20:32.647Z,99.90
2018-08-30T10:23:00.859Z,99.90
2018-08-30T10:25:29.182Z,99.90
2018-08-30T10:27:57.357Z,99.90
2018-08-30T10:30:25.647Z,99.90
2018-08-30T10:32:53.872Z,99.90
2018-08-30T10:35:22.105Z,99.90
2018-08-30T10:37:50.358Z,99.90
2018-08-30T10:40:18.635Z,99.90
2018-08-30T10:42:46.871Z,99.90
2018-08-30T10:45:15.082Z,99.90
2018-08-30T10:47:43.315Z,99.90
2018-08-30T10:50:11.553Z,99.90
2018-08-30T10:52:40.488Z,99.90
2018-08-30T10:55:08.751Z,99.90
2018-08-30T10:57:37.027Z,99.90
2018-08-30T11:00:06.220Z,99.90
2018-08-30T11:02:34.491Z,99.90
2018-08-30T11:05:02.713Z,99.90
2018-08-30T11:07:30.930Z,99.90
2018-08-30T11:09:59.190Z,99.90
2018-08-30T11:12:27.440Z,99.90
2018-08-30T11:14:55.651Z,99.90
2018-08-30T11:17:24.286Z,99.90
2018-08-30T11:19:52.516Z,99.90
2018-08-30T11:22:20.740Z,99.90
2018-08-30T11:24:48.953Z,99.90
2018-08-30T11:27:17.321Z,99.90
2018-08-30T11:29:45.555Z,99.90
2018-08-30T11:32:13.790Z,99.90
2018-08-30T11:34:42.024Z,99.90
2018-08-30T11:37:10.389Z,99.90
2018-08-30T11:39:38.624Z,99.90
2018-08-30T11:42:06.863Z,99.90
2018-08-30T11:44:35.086Z,99.90
2018-08-30T11:47:03.326Z,99.90
2018-08-30T11:49:31.564Z,99.60
2018-08-30T11:51:59.859Z,99.70
2018-08-30T11:54:28.212Z,99.70
2018-08-30T11:56:56.457Z,99.90
2018-08-30T11:59:24.724Z,99.90
2018-08-30T12:01:53.135Z,99.90
2018-08-30T12:04:21.557Z,99.90
2018-08-30T12:06:49.792Z,99.90
2018-08-30T12:09:18.056Z,99.90
2018-08-30T12:11:46.272Z,99.90
2018-08-30T12:14:14.524Z,99.90
2018-08-30T12:16:42.764Z,99.90
2018-08-30T12:19:11.045Z,99.90
2018-08-30T12:21:39.276Z,99.90
2018-08-30T12:24:07.557Z,99.90
2018-08-30T12:26:35.769Z,99.90
2018-08-30T12:29:04.054Z,99.90
2018-08-30T12:31:32.326Z,99.90
2018-08-30T12:34:00.648Z,99.90
2018-08-30T12:36:28.955Z,99.90
2018-08-30T12:38:57.306Z,99.90
2018-08-30T12:41:25.613Z,99.90
2018-08-30T12:43:54.074Z,99.90
2018-08-30T12:46:22.301Z,99.90
2018-08-30T12:48:50.848Z,99.90
2018-08-30T12:51:19.224Z,99.90
2018-08-30T12:53:47.518Z,99.90
2018-08-30T12:56:15.787Z,99.90
2018-08-30T12:58:44.138Z,99.90
2018-08-30T13:01:12.522Z,99.90
2018-08-30T13:03:40.746Z,99.90
2018-08-30T13:06:09.297Z,99.90
2018-08-30T13:08:37.567Z,99.90
2018-08-30T13:11:06.133Z,99.90
2018-08-30T13:13:34.294Z,99.90
2018-08-30T13:16:02.744Z,99.90
2018-08-30T13:18:31.188Z,99.90
2018-08-30T13:20:59.445Z,99.90
2018-08-30T13:23:27.776Z,99.90
2018-08-30T13:25:55.954Z,99.90
2018-08-30T13:28:24.420Z,99.90
2018-08-30T13:30:52.701Z,99.90
2018-08-30T13:33:21.186Z,99.90
2018-08-30T13:35:49.362Z,99.90
2018-08-30T13:38:17.876Z,99.90
2018-08-30T13:40:46.025Z,99.90
2018-08-30T13:43:14.273Z,99.90
2018-08-30T13:45:42.470Z,99.90
2018-08-30T13:48:10.791Z,99.90
2018-08-30T13:50:39.011Z,99.90
2018-08-30T13:53:07.336Z,99.90
2018-08-30T13:55:35.804Z,99.90
2018-08-30T13:58:04.077Z,99.90
2018-08-30T14:00:32.452Z,99.90
2018-08-30T14:03:00.495Z,99.90
2018-08-30T14:05:28.792Z,99.90
2018-08-30T14:07:56.933Z,99.90
2018-08-30T14:10:25.230Z,99.70
2018-08-30T14:12:53.493Z,99.90
2018-08-30T14:15:21.924Z,99.90
2018-08-30T14:17:49.822Z,99.60
2018-08-30T14:20:18.122Z,99.90
2018-08-30T14:22:46.415Z,99.90
2018-08-30T14:25:14.584Z,99.90
2018-08-30T14:27:42.815Z,99.90
2018-08-30T14:30:11.369Z,99.10
2018-08-30T14:32:39.699Z,98.90
2018-08-30T14:35:07.853Z,97.90
2018-08-30T14:37:36.138Z,97.90
2018-08-30T14:40:04.427Z,96.80
2018-08-30T14:42:32.660Z,95.40
2018-08-30T14:45:01.193Z,95.10
2018-08-30T14:47:29.494Z,94.80
2018-08-30T14:49:57.764Z,94.90
2018-08-30T14:52:26.015Z,93.70
2018-08-30T14:54:54.193Z,94.20
2018-08-30T14:57:22.449Z,93.40
2018-08-30T14:59:50.707Z,93.50
2018-08-30T15:02:18.956Z,93.80
2018-08-30T15:04:47.191Z,94.60
2018-08-30T15:07:15.427Z,95.00
2018-08-30T15:09:43.761Z,95.50
2018-08-30T15:12:11.975Z,95.60
2018-08-30T15:14:40.209Z,96.20
2018-08-30T15:17:08.737Z,96.40
2018-08-30T15:19:36.980Z,96.30
2018-08-30T15:22:05.243Z,96.60
2018-08-30T15:24:33.787Z,95.80
2018-08-30T15:27:02.217Z,95.80
2018-08-30T15:29:30.538Z,95.90
2018-08-30T15:31:59.172Z,95.40
2018-08-30T15:34:27.534Z,95.30
2018-08-30T15:36:55.702Z,95.00
2018-08-30T15:39:24.115Z,94.20
2018-08-30T15:41:52.452Z,94.30
2018-08-30T15:44:20.703Z,93.80
2018-08-30T15:46:48.971Z,94.30
2018-08-30T15:49:17.404Z,93.90
2018-08-30T15:51:45.677Z,94.00
2018-08-30T15:54:14.015Z,93.20
2018-08-30T15:56:42.243Z,92.90
2018-08-30T15:59:10.536Z,92.10
2018-08-30T16:01:38.794Z,92.50
2018-08-30T16:04:07.026Z,91.70
2018-08-30T16:06:35.355Z,91.20
2018-08-30T16:09:04.551Z,90.90
2018-08-30T16:11:32.797Z,91.80
2018-08-30T16:14:01.108Z,92.20
2018-08-30T16:16:29.350Z,92.80
2018-08-30T16:18:57.644Z,92.60
2018-08-30T16:21:25.879Z,92.70
2018-08-30T16:23:54.144Z,92.40
2018-08-30T16:26:22.389Z,92.80
2018-08-30T16:28:50.620Z,93.50
2018-08-30T16:31:19.026Z,94.40
2018-08-30T16:33:47.090Z,95.10
2018-08-30T16:36:15.433Z,95.80
2018-08-30T16:38:43.669Z,96.50
2018-08-30T16:41:11.933Z,97.10
2018-08-30T16:43:40.162Z,97.60
2018-08-30T16:46:08.416Z,97.70
2018-08-30T16:48:36.642Z,98.30
2018-08-30T16:51:05.072Z,98.40
2018-08-30T16:53:33.303Z,98.50
2018-08-30T16:56:01.615Z,98.80
2018-08-30T16:58:29.777Z,99.30
2018-08-30T17:00:58.155Z,99.60
2018-08-30T17:03:26.419Z,99.70
2018-08-30T17:05:54.675Z,99.90
2018-08-30T17:08:22.925Z,99.90
2018-08-30T17:10:51.175Z,99.90
2018-08-30T17:13:19.456Z,99.90
2018-08-30T17:15:47.718Z,99.90
2018-08-30T17:18:15.966Z,99.90
2018-08-30T17:20:47.558Z,99.90
2018-08-30T17:23:15.809Z,99.90
2018-08-30T17:25:45.208Z,99.90
2018-08-30T17:28:13.616Z,99.90
2018-08-30T17:30:42.064Z,99.90
2018-08-30T17:33:10.777Z,99.90
2018-08-30T17:35:39.022Z,99.90
2018-08-30T17:38:07.257Z,99.90
2018-08-30T17:40:35.535Z,99.90
2018-08-30T17:43:03.787Z,99.90
2018-08-30T17:45:32.162Z,99.90
2018-08-30T17:48:00.449Z,99.90
2018-08-30T17:50:28.790Z,99.90
2018-08-30T17:52:56.854Z,99.90
2018-08-30T17:55:25.185Z,99.90
2018-08-30T17:57:53.358Z,99.90
2018-08-30T18:00:21.566Z,99.90
2018-08-30T18:02:49.900Z,99.90
2018-08-30T18:05:18.087Z,99.90
2018-08-30T18:07:46.332Z,99.90
2018-08-30T18:10:14.570Z,99.90
2018-08-30T18:12:42.811Z,99.90
2018-08-30T18:15:12.779Z,99.90
2018-08-30T18:17:41.028Z,99.90
2018-08-30T18:20:09.276Z,99.90
2018-08-30T18:22:37.500Z,99.90
2018-08-30T18:25:05.850Z,99.90
2018-08-30T18:27:34.929Z,99.90
2018-08-30T18:30:03.161Z,99.90
2018-08-30T18:32:31.396Z,99.90
2018-08-30T18:34:59.682Z,99.90
2018-08-30T18:37:27.914Z,99.90
2018-08-30T18:39:56.484Z,99.90
2018-08-30T18:42:24.826Z,99.90
2018-08-30T18:44:53.029Z,99.90
2018-08-30T18:47:21.297Z,99.90
2018-08-30T18:49:49.533Z,99.90
2018-08-30T18:52:17.771Z,99.90
2018-08-30T18:54:45.982Z,99.90
2018-08-30T18:57:14.261Z,99.90
2018-08-30T18:59:42.498Z,99.90
2018-08-30T19:02:10.740Z,99.90
2018-08-30T19:04:38.966Z,99.90
2018-08-30T19:07:07.219Z,99.90
2018-08-30T19:09:35.465Z,99.90
2018-08-30T19:12:03.707Z,99.90
2018-08-30T19:14:31.948Z,99.90
2018-08-30T19:17:05.553Z,99.90
2018-08-30T19:19:35.703Z,99.90
2018-08-30T19:22:03.950Z,99.90
2018-08-30T19:24:37.506Z,99.90
2018-08-30T19:27:05.795Z,99.90
2018-08-30T19:29:39.595Z,99.90
2018-08-30T19:32:07.843Z,99.90
2018-08-30T19:34:36.063Z,99.90
2018-08-30T19:37:04.430Z,99.90
2018-08-30T19:39:32.666Z,99.90
2018-08-30T19:42:00.906Z,99.90
2018-08-30T19:44:29.125Z,99.90
2018-08-30T19:46:58.155Z,99.90
2018-08-30T19:49:26.389Z,99.90
2018-08-30T19:51:54.616Z,99.90
2018-08-30T19:54:22.849Z,99.90
2018-08-30T19:56:51.081Z,99.90
2018-08-30T19:59:19.330Z,99.90
2018-08-30T20:01:47.548Z,99.90
2018-08-30T20:04:15.966Z,99.90
2018-08-30T20:06:44.204Z,99.90
2018-08-30T20:09:12.456Z,99.90
2018-08-30T20:11:40.695Z,99.90
2018-08-30T20:14:08.938Z,99.90
2018-08-30T20:16:37.587Z,99.90
2018-08-30T20:19:05.847Z,99.90
2018-08-30T20:21:34.096Z,99.90
2018-08-30T20:24:02.326Z,99.90
2018-08-30T20:26:30.607Z,99.90
2018-08-30T20:28:58.855Z,99.90
2018-08-30T20:31:27.138Z,99.90
2018-08-30T20:33:55.379Z,99.90
2018-08-30T20:36:23.621Z,99.90
2018-08-30T20:38:51.940Z,99.90
2018-08-30T20:41:20.428Z,99.90
2018-08-30T20:43:48.660Z,99.90
2018-08-30T20:46:17.017Z,99.90
2018-08-30T20:48:45.227Z,99.90
2018-08-30T20:51:13.439Z,99.90
2018-08-30T20:53:41.672Z,99.90
2018-08-30T20:56:10.059Z,99.90
2018-08-30T20:58:38.340Z,99.90
2018-08-30T21:01:06.554Z,99.90
2018-08-30T21:03:34.814Z,99.90
2018-08-30T21:06:03.016Z,99.90
2018-08-30T21:08:31.303Z,99.90
2018-08-30T21:10:59.552Z,99.90
2018-08-30T21:13:27.852Z,99.90
2018-08-30T21:15:56.167Z,99.90
2018-08-30T21:18:24.433Z,99.90
2018-08-30T21:20:52.670Z,99.90
2018-08-30T21:23:20.984Z,99.90
2018-08-30T21:25:49.267Z,99.90
2018-08-30T21:28:17.690Z,99.90
2018-08-30T21:30:45.992Z,99.90
2018-08-30T21:33:14.233Z,99.90
2018-08-30T21:35:42.480Z,99.90
2018-08-30T21:38:10.700Z,99.90
2018-08-30T21:40:38.937Z,99.90
2018-08-30T21:43:07.148Z,99.90
2018-08-30T21:45:35.368Z,99.90
2018-08-30T21:48:03.646Z,99.90
2018-08-30T21:50:32.017Z,99.90
2018-08-30T21:53:00.239Z,99.90
2018-08-30T21:55:28.483Z,99.90
2018-08-30T21:57:56.760Z,99.90
2018-08-30T22:00:25.613Z,99.90
2018-08-30T22:02:53.890Z,99.90
2018-08-30T22:05:22.062Z,99.90
2018-08-30T22:07:50.269Z,99.90
2018-08-30T22:10:18.544Z,99.90
2018-08-30T22:12:46.750Z,99.90
2018-08-30T22:15:14.993Z,99.90
2018-08-30T22:17:43.232Z,99.90
2018-08-30T22:20:11.495Z,99.90
2018-08-30T22:22:39.717Z,99.90
2018-08-30T22:25:08.173Z,99.90
2018-08-30T22:27:36.479Z,99.90
2018-08-30T22:30:07.203Z,99.90
2018-08-30T22:32:35.427Z,99.90
2018-08-30T22:35:03.673Z,99.90
2018-08-30T22:37:31.890Z,99.90
2018-08-30T22:40:00.190Z,99.90
2018-08-30T22:42:28.403Z,99.90
2018-08-30T22:44:56.619Z,99.90
2018-08-30T22:47:24.867Z,99.90
2018-08-30T22:49:53.094Z,99.90
2018-08-30T22:52:21.316Z,99.90
2018-08-30T22:54:49.565Z,99.90
2018-08-30T22:57:17.781Z,99.90
2018-08-30T22:59:45.987Z,99.90
2018-08-30T23:02:14.201Z,99.90
2018-08-30T23:04:42.464Z,99.90
2018-08-30T23:07:10.663Z,99.90
2018-08-30T23:09:38.865Z,99.90
2018-08-30T23:12:07.317Z,99.90
2018-08-30T23:14:35.636Z,99.90
2018-08-30T23:17:04.235Z,99.90
2018-08-30T23:19:32.560Z,99.90
2018-08-30T23:22:00.774Z,99.90
2018-08-30T23:24:29.003Z,99.90
2018-08-30T23:26:57.259Z,99.90
2018-08-30T23:29:25.489Z,99.90
2018-08-30T23:31:53.731Z,99.90
2018-08-30T23:34:21.952Z,99.90
2018-08-30T23:36:50.188Z,99.90
2018-08-30T23:39:18.403Z,99.90
2018-08-30T23:41:46.616Z,99.90
2018-08-30T23:44:14.831Z,99.90
2018-08-30T23:46:43.082Z,99.90
2018-08-30T23:49:11.291Z,99.90
2018-08-30T23:51:39.519Z,99.90
2018-08-30T23:54:07.845Z,99.90
2018-08-30T23:56:36.103Z,99.90
2018-08-30T23:59:15.577Z,99.90
